Startpagina
METAR-TAF:

METAR-TAF

Vliegvelden :

Langkawi, Maleisië

breedte: 06-20N, lengte: 099-44E, hoogte: 8 m

Actueel weer

Dit bericht is 34 minuten geleden gemaakt, om 12:00 UTC
Wind 6 kt uit het noordnoordoosten, variërend tussen het noordnoordwesten en het oosten
Temperatuur 28°C
Vochtigheid 74%
Druk 1011 hPa
Zicht 10 km of meer
Weinig wolken op 2600 ft

METAR: WMKL 071200Z 03006KT 330V090 9999 FEW026 28/23 Q1011

Tijdstip: 20:34 (12:34 UTC)

Verwachting

Dit bericht is 1 uur en het 34 minuten geleden gemaakt, om 11:00 UTC
Verwachting geldig van 07 om 12 UTC tot 08 om 12 UTC
Wind 7 kt uit het noordoosten
Zicht 10 km of meer
Weinig wolken op 2600 ft

TAF: WMKL 071100Z 0712/0812 04007KT 9999 FEW026

Waarnemingen en weersverwachtingen van meer dan 4000 vliegvelden (METAR en TAF).

De beschikbare stations zijn de gele en rode punten op de kaart.

Ga met uw muis naar het station om de naam te zien.

Klik dan om waarnemingen en weersverwachtingen te zien.

kaart wijzigen: klik op de groene knoppen met een zwart kruis om in te zoomen, op de groene knop met een streepje om uit te zoomen of op de groene pijlen voor aangrenzende kaarten.


METAR-TAF: